Time;durP1;ratioP1;P1;durP2;ratioP2;P2;SDS_P1;SDS_P2;PMS_P1;PMS_P2;Temp;Humidity;BMP_temperature;BMP_pressure;BME280_temperature;BME280_humidity;BME280_pressure;Samples;Min_cycle;Max_cycle;Signal;HPM_P1;HPM_P2
2023/04/03 00:00:51;;;;;;;2.88;2.10;;;;;;;;;;4997510;28;20207;-67
2023/04/03 00:03:19;;;;;;;5.45;3.47;;;;;;;;;;5000786;28;20675;-67
2023/04/03 00:05:46;;;;;;;2.83;2.10;;;;;;;;;;4997976;28;20204;-67
2023/04/03 00:08:14;;;;;;;2.13;1.95;;;;;;;;;;4997473;28;20683;-67
2023/04/03 00:10:41;;;;;;;2.28;1.92;;;;;;;;;;5014680;28;20206;-69
2023/04/03 00:13:10;;;;;;;4.40;2.20;;;;;;;;;;5017337;28;20209;-67
2023/04/03 00:15:38;;;;;;;4.60;1.83;;;;;;;;;;5017268;28;20200;-67
2023/04/03 00:18:05;;;;;;;2.88;1.85;;;;;;;;;;5017162;28;20292;-67
2023/04/03 00:20:32;;;;;;;2.85;2.30;;;;;;;;;;5017204;28;20197;-67
2023/04/03 00:23:00;;;;;;;3.65;1.70;;;;;;;;;;5017284;28;20569;-68
2023/04/03 00:25:27;;;;;;;7.15;2.50;;;;;;;;;;5016752;28;20311;-67
2023/04/03 00:27:54;;;;;;;5.53;2.25;;;;;;;;;;5016970;28;20198;-67
2023/04/03 00:30:23;;;;;;;2.53;1.95;;;;;;;;;;5016947;28;20196;-67
2023/04/03 00:32:50;;;;;;;3.60;2.15;;;;;;;;;;5016492;28;20196;-67
2023/04/03 00:35:18;;;;;;;2.85;1.90;;;;;;;;;;5017065;28;20581;-68
2023/04/03 00:37:45;;;;;;;4.82;2.30;;;;;;;;;;5016925;28;20202;-67
2023/04/03 00:40:13;;;;;;;4.93;2.40;;;;;;;;;;5016840;28;20231;-67
2023/04/03 00:42:41;;;;;;;3.60;2.22;;;;;;;;;;5016337;28;20194;-67
2023/04/03 00:45:29;;;;;;;4.60;2.58;;;;;;;;;;5016324;28;20704;-67
2023/04/03 00:48:00;;;;;;;5.10;2.70;;;;;;;;;;5011503;28;20207;-67
2023/04/03 00:50:27;;;;;;;2.50;2.30;;;;;;;;;;5016793;28;20203;-67
2023/04/03 00:52:55;;;;;;;2.50;1.90;;;;;;;;;;5016645;28;20203;-67
2023/04/03 00:55:22;;;;;;;3.97;2.40;;;;;;;;;;5016545;28;20206;-67
2023/04/03 00:57:50;;;;;;;4.78;2.38;;;;;;;;;;5016045;28;20210;-67
2023/04/03 01:00:18;;;;;;;2.25;1.98;;;;;;;;;;5015987;28;20202;-67
2023/04/03 01:02:46;;;;;;;5.18;1.95;;;;;;;;;;5015239;28;20290;-67
2023/04/03 01:05:17;;;;;;;2.28;1.70;;;;;;;;;;5015885;28;20225;-67
2023/04/03 01:07:44;;;;;;;4.15;2.55;;;;;;;;;;5016242;28;20188;-67
2023/04/03 01:10:14;;;;;;;5.47;2.20;;;;;;;;;;5008389;28;20198;-67
2023/04/03 01:12:42;;;;;;;5.32;1.90;;;;;;;;;;5015860;28;20295;-67
2023/04/03 01:15:10;;;;;;;2.28;2.08;;;;;;;;;;5016255;28;20207;-68
2023/04/03 01:17:38;;;;;;;2.60;2.40;;;;;;;;;;5016073;28;20205;-67
2023/04/03 01:20:26;;;;;;;5.57;2.45;;;;;;;;;;5016230;28;20293;-67
2023/04/03 01:22:58;;;;;;;3.78;2.17;;;;;;;;;;4991086;28;20206;-67
2023/04/03 01:25:25;;;;;;;2.92;2.20;;;;;;;;;;5016013;28;20212;-67
2023/04/03 01:27:53;;;;;;;2.65;1.83;;;;;;;;;;5015579;28;20200;-67
2023/04/03 01:30:21;;;;;;;4.88;2.10;;;;;;;;;;5015850;28;20208;-67
2023/04/03 01:32:50;;;;;;;3.53;2.10;;;;;;;;;;5015739;28;20200;-67
2023/04/03 01:35:17;;;;;;;3.35;2.35;;;;;;;;;;5016048;28;20228;-67
2023/04/03 01:37:44;;;;;;;2.55;2.10;;;;;;;;;;5015701;28;20207;-67
2023/04/03 01:40:12;;;;;;;3.60;2.50;;;;;;;;;;5016179;28;20207;-67
2023/04/03 01:42:39;;;;;;;3.15;1.98;;;;;;;;;;5015258;28;20650;-67
2023/04/03 01:45:07;;;;;;;2.35;2.08;;;;;;;;;;5015941;28;20262;-67
2023/04/03 01:47:34;;;;;;;3.25;2.00;;;;;;;;;;5015592;28;20201;-67
2023/04/03 01:50:03;;;;;;;4.28;2.42;;;;;;;;;;5015208;28;20199;-67
2023/04/03 01:52:31;;;;;;;5.63;2.13;;;;;;;;;;5015434;28;20230;-67
2023/04/03 01:54:58;;;;;;;3.10;2.03;;;;;;;;;;5015420;28;20204;-67
2023/04/03 01:57:25;;;;;;;3.65;2.78;;;;;;;;;;5015375;28;20200;-67
2023/04/03 01:59:52;;;;;;;2.58;2.38;;;;;;;;;;5015012;28;20203;-67
2023/04/03 02:02:20;;;;;;;4.43;2.30;;;;;;;;;;5011067;28;20204;-67
2023/04/03 02:04:47;;;;;;;3.22;2.40;;;;;;;;;;4995600;28;20685;-67
2023/04/03 02:07:15;;;;;;;2.65;1.95;;;;;;;;;;4995556;28;20210;-68
2023/04/03 02:09:43;;;;;;;2.92;2.00;;;;;;;;;;4998407;28;20664;-67
2023/04/03 02:12:10;;;;;;;2.30;2.10;;;;;;;;;;4995240;28;20653;-68
2023/04/03 02:14:37;;;;;;;4.00;2.22;;;;;;;;;;4995320;28;20234;-68
2023/04/03 02:17:08;;;;;;;5.28;2.03;;;;;;;;;;4995797;28;20211;-67
2023/04/03 02:19:35;;;;;;;5.20;2.58;;;;;;;;;;4995680;28;20539;-67
2023/04/03 02:22:02;;;;;;;4.75;2.35;;;;;;;;;;4994994;28;20717;-67
2023/04/03 02:24:31;;;;;;;4.43;2.20;;;;;;;;;;4995140;28;20220;-67
2023/04/03 02:26:58;;;;;;;4.68;2.15;;;;;;;;;;4995219;28;20204;-67
2023/04/03 02:29:25;;;;;;;3.25;1.95;;;;;;;;;;4995189;28;20203;-67
2023/04/03 02:31:53;;;;;;;3.20;2.03;;;;;;;;;;4995133;28;20204;-67
2023/04/03 02:34:20;;;;;;;4.60;2.45;;;;;;;;;;4994821;28;20235;-67
2023/04/03 02:36:47;;;;;;;5.68;2.35;;;;;;;;;;4995093;28;20539;-67
2023/04/03 02:39:14;;;;;;;5.47;2.28;;;;;;;;;;4994933;28;20199;-68
2023/04/03 02:41:43;;;;;;;5.80;2.35;;;;;;;;;;4995177;28;20262;-67
2023/04/03 02:44:11;;;;;;;4.22;2.22;;;;;;;;;;4994575;28;20199;-67
2023/04/03 02:46:38;;;;;;;7.78;2.65;;;;;;;;;;4994844;28;20199;-67
2023/04/03 02:49:06;;;;;;;2.08;1.80;;;;;;;;;;4994743;28;20195;-67
2023/04/03 02:51:33;;;;;;;3.97;2.20;;;;;;;;;;4994763;28;20195;-67
2023/04/03 02:54:00;;;;;;;4.40;1.85;;;;;;;;;;4994641;28;20200;-67
2023/04/03 02:56:28;;;;;;;2.25;2.00;;;;;;;;;;4995102;28;20571;-67
2023/04/03 02:58:56;;;;;;;4.05;2.10;;;;;;;;;;4994612;28;20229;-67
2023/04/03 03:01:24;;;;;;;3.55;2.25;;;;;;;;;;4994683;28;20205;-67
2023/04/03 03:03:51;;;;;;;3.45;2.40;;;;;;;;;;5012832;28;20209;-67
2023/04/03 03:06:18;;;;;;;3.28;2.10;;;;;;;;;;5014050;28;20219;-67
2023/04/03 03:08:45;;;;;;;4.05;2.00;;;;;;;;;;5013652;28;20203;-68
2023/04/03 03:11:13;;;;;;;5.63;2.80;;;;;;;;;;5014049;28;20201;-67
2023/04/03 03:13:40;;;;;;;7.45;2.65;;;;;;;;;;5014448;28;20527;-67
2023/04/03 03:16:09;;;;;;;3.08;2.65;;;;;;;;;;5014335;28;20206;-67
2023/04/03 03:18:36;;;;;;;7.38;3.55;;;;;;;;;;5013683;28;20202;-67
2023/04/03 03:21:04;;;;;;;7.97;3.13;;;;;;;;;;5013683;28;20683;-67
2023/04/03 03:23:32;;;;;;;8.65;2.35;;;;;;;;;;5013851;28;20231;-67
2023/04/03 03:26:01;;;;;;;5.65;2.47;;;;;;;;;;5012632;28;20218;-67
2023/04/03 03:28:28;;;;;;;2.38;1.95;;;;;;;;;;5013459;28;20199;-67
2023/04/03 03:30:55;;;;;;;2.97;2.17;;;;;;;;;;5014040;28;20201;-68
2023/04/03 03:33:25;;;;;;;5.43;2.30;;;;;;;;;;5014256;28;20284;-68
2023/04/03 03:35:52;;;;;;;5.72;2.83;;;;;;;;;;5014174;28;20235;-67
2023/04/03 03:38:19;;;;;;;5.43;3.10;;;;;;;;;;5013906;28;20606;-69
2023/04/03 03:40:48;;;;;;;2.90;2.40;;;;;;;;;;5013650;28;20200;-67
2023/04/03 03:43:15;;;;;;;3.83;2.60;;;;;;;;;;5013760;28;20196;-68
2023/04/03 03:45:42;;;;;;;5.13;2.20;;;;;;;;;;5013541;28;20224;-68
2023/04/03 03:48:10;;;;;;;4.45;2.75;;;;;;;;;;5014484;28;20205;-67
2023/04/03 03:50:38;;;;;;;6.03;2.40;;;;;;;;;;5011972;28;20667;-68
2023/04/03 03:53:05;;;;;;;7.85;2.95;;;;;;;;;;5012639;28;20207;-70
2023/04/03 03:55:32;;;;;;;6.10;2.85;;;;;;;;;;5013011;28;20202;-67
2023/04/03 03:58:00;;;;;;;3.08;2.50;;;;;;;;;;5012505;28;20201;-68
2023/04/03 04:00:28;;;;;;;7.28;2.63;;;;;;;;;;5012972;28;20197;-67
2023/04/03 04:02:55;;;;;;;3.90;2.50;;;;;;;;;;5012678;28;20671;-67
2023/04/03 04:05:23;;;;;;;2.85;2.30;;;;;;;;;;5012745;28;20221;-68
2023/04/03 04:07:51;;;;;;;4.82;3.00;;;;;;;;;;5012883;28;20285;-68
2023/04/03 04:10:19;;;;;;;2.15;1.98;;;;;;;;;;5012935;28;20209;-68
2023/04/03 04:12:46;;;;;;;6.85;2.60;;;;;;;;;;5012705;28;20214;-68
2023/04/03 04:15:13;;;;;;;5.20;2.60;;;;;;;;;;5012414;28;20300;-70
2023/04/03 04:17:40;;;;;;;3.92;2.33;;;;;;;;;;5012593;28;20199;-67
2023/04/03 04:20:08;;;;;;;2.75;2.05;;;;;;;;;;5012428;28;20285;-67
2023/04/03 04:22:35;;;;;;;3.13;2.30;;;;;;;;;;5012943;28;20200;-68
2023/04/03 04:25:04;;;;;;;3.92;2.60;;;;;;;;;;5012396;28;20209;-67
2023/04/03 04:27:31;;;;;;;3.90;2.33;;;;;;;;;;5012585;28;20260;-67
2023/04/03 04:29:58;;;;;;;5.22;2.50;;;;;;;;;;5012812;28;20208;-69
2023/04/03 04:32:25;;;;;;;6.88;2.53;;;;;;;;;;5012620;28;20660;-67
2023/04/03 04:34:53;;;;;;;4.28;2.60;;;;;;;;;;5012466;28;20687;-68
2023/04/03 04:37:20;;;;;;;3.38;2.35;;;;;;;;;;5014329;28;20651;-67
2023/04/03 04:39:47;;;;;;;5.38;2.50;;;;;;;;;;5016462;28;20206;-68
2023/04/03 04:42:16;;;;;;;4.55;2.60;;;;;;;;;;5016319;28;20202;-72
2023/04/03 04:44:44;;;;;;;6.00;2.65;;;;;;;;;;5015726;28;20202;-69
2023/04/03 04:47:11;;;;;;;8.10;3.13;;;;;;;;;;5016406;28;20294;-68
2023/04/03 04:49:38;;;;;;;3.55;2.35;;;;;;;;;;5015968;28;20222;-68
2023/04/03 04:52:06;;;;;;;4.80;2.60;;;;;;;;;;5016279;28;20627;-68
2023/04/03 04:54:33;;;;;;;6.10;3.03;;;;;;;;;;5016412;28;20205;-68
2023/04/03 04:57:00;;;;;;;3.83;2.70;;;;;;;;;;5016520;28;20543;-68
2023/04/03 04:59:29;;;;;;;5.68;2.88;;;;;;;;;;5016415;28;20199;-67
2023/04/03 05:01:56;;;;;;;4.95;2.55;;;;;;;;;;5015863;28;20659;-68
2023/04/03 05:04:23;;;;;;;5.88;2.45;;;;;;;;;;5015967;28;20317;-69
2023/04/03 05:06:50;;;;;;;4.50;2.30;;;;;;;;;;5015884;28;20222;-69
2023/04/03 05:09:19;;;;;;;3.08;2.40;;;;;;;;;;5015733;28;20677;-69
2023/04/03 05:11:47;;;;;;;3.85;2.47;;;;;;;;;;4997988;28;20676;-69
2023/04/03 05:14:14;;;;;;;10.48;2.80;;;;;;;;;;4996362;28;20204;-69
2023/04/03 05:16:42;;;;;;;5.60;2.55;;;;;;;;;;4996035;28;20208;-68
2023/04/03 05:19:10;;;;;;;4.55;2.72;;;;;;;;;;4996094;28;20665;-69
2023/04/03 05:21:37;;;;;;;11.50;2.80;;;;;;;;;;4996244;28;20209;-69
2023/04/03 05:24:04;;;;;;;5.05;3.08;;;;;;;;;;4995832;28;20205;-68
2023/04/03 05:26:32;;;;;;;4.38;2.35;;;;;;;;;;4995959;28;20305;-69
2023/04/03 05:28:59;;;;;;;4.68;2.67;;;;;;;;;;4996448;28;20198;-69
2023/04/03 05:31:29;;;;;;;5.30;2.55;;;;;;;;;;4995844;28;20201;-69
2023/04/03 05:33:57;;;;;;;6.70;2.35;;;;;;;;;;4995796;28;20202;-69
2023/04/03 05:36:25;;;;;;;4.72;2.95;;;;;;;;;;4996012;28;20205;-69
2023/04/03 05:38:52;;;;;;;7.90;2.92;;;;;;;;;;4995933;28;20288;-67
2023/04/03 05:41:20;;;;;;;6.53;2.88;;;;;;;;;;4995880;28;20199;-68
2023/04/03 05:43:47;;;;;;;3.38;2.78;;;;;;;;;;4996104;28;20208;-68
2023/04/03 05:46:15;;;;;;;4.60;2.40;;;;;;;;;;4996096;28;20221;-68
2023/04/03 05:48:42;;;;;;;3.55;2.13;;;;;;;;;;4994689;28;20202;-68
2023/04/03 05:51:15;;;;;;;4.40;2.80;;;;;;;;;;4995811;28;20197;-69
2023/04/03 05:53:42;;;;;;;8.07;3.22;;;;;;;;;;4996751;28;20528;-68
2023/04/03 05:56:10;;;;;;;3.72;2.53;;;;;;;;;;4995457;28;20206;-69
2023/04/03 05:58:37;;;;;;;3.95;2.35;;;;;;;;;;4995515;28;20612;-69
2023/04/03 06:01:05;;;;;;;5.97;2.15;;;;;;;;;;4995771;28;20651;-69
2023/04/03 06:03:32;;;;;;;6.00;2.38;;;;;;;;;;4995644;28;20288;-68
2023/04/03 06:05:59;;;;;;;7.10;2.90;;;;;;;;;;4995424;28;20298;-69
2023/04/03 06:08:28;;;;;;;5.65;2.72;;;;;;;;;;4995555;28;20288;-67
2023/04/03 06:10:56;;;;;;;8.75;2.55;;;;;;;;;;4995119;28;20202;-68
2023/04/03 06:13:23;;;;;;;7.28;3.10;;;;;;;;;;4995073;28;20289;-69
2023/04/03 06:15:50;;;;;;;2.70;2.40;;;;;;;;;;4995626;28;20292;-69
2023/04/03 06:18:17;;;;;;;5.35;2.53;;;;;;;;;;4995451;28;20203;-68
2023/04/03 06:20:45;;;;;;;4.80;3.38;;;;;;;;;;4995355;28;20219;-69
2023/04/03 06:23:12;;;;;;;11.35;3.45;;;;;;;;;;4995306;28;20197;-68
2023/04/03 06:25:41;;;;;;;8.68;2.60;;;;;;;;;;4995139;28;20197;-69
2023/04/03 06:28:10;;;;;;;9.02;2.85;;;;;;;;;;4995145;28;20204;-68
2023/04/03 06:30:37;;;;;;;3.05;2.35;;;;;;;;;;4994864;28;20197;-68
2023/04/03 06:33:05;;;;;;;6.13;2.92;;;;;;;;;;4994717;28;20339;-67
2023/04/03 06:35:34;;;;;;;2.83;2.35;;;;;;;;;;4994547;28;20237;-68
2023/04/03 06:38:03;;;;;;;8.32;2.47;;;;;;;;;;4994524;28;20199;-69
2023/04/03 06:40:31;;;;;;;6.45;3.28;;;;;;;;;;4995165;28;20201;-68
2023/04/03 06:42:59;;;;;;;5.43;2.90;;;;;;;;;;4994520;28;20681;-68
2023/04/03 06:45:27;;;;;;;5.30;2.60;;;;;;;;;;4994511;28;20715;-68
2023/04/03 06:47:54;;;;;;;4.72;2.15;;;;;;;;;;4994357;28;20227;-68
2023/04/03 06:50:21;;;;;;;11.23;2.60;;;;;;;;;;4994501;28;20203;-68
2023/04/03 06:52:48;;;;;;;4.93;2.50;;;;;;;;;;4994315;28;20199;-68
2023/04/03 06:55:16;;;;;;;3.95;2.00;;;;;;;;;;4994371;28;20203;-68
2023/04/03 06:57:43;;;;;;;4.35;2.42;;;;;;;;;;4994786;28;20214;-68
2023/04/03 07:00:13;;;;;;;6.43;2.63;;;;;;;;;;4994436;28;20562;-68
2023/04/03 07:02:40;;;;;;;3.10;1.70;;;;;;;;;;4994542;28;20563;-68
2023/04/03 07:05:08;;;;;;;4.40;2.40;;;;;;;;;;4994783;28;20200;-68
2023/04/03 07:07:35;;;;;;;11.98;2.65;;;;;;;;;;4994450;28;20278;-68
2023/04/03 07:10:03;;;;;;;3.55;2.22;;;;;;;;;;4994179;28;20287;-68
2023/04/03 07:12:30;;;;;;;3.35;2.30;;;;;;;;;;4994057;28;20674;-68
2023/04/03 07:14:58;;;;;;;3.58;1.95;;;;;;;;;;4994082;28;20688;-68
2023/04/03 07:17:26;;;;;;;4.38;2.33;;;;;;;;;;4993978;28;20252;-68
2023/04/03 07:19:53;;;;;;;4.68;2.45;;;;;;;;;;4994042;28;20662;-68
2023/04/03 07:22:21;;;;;;;5.40;2.20;;;;;;;;;;4994195;28;20222;-69
2023/04/03 07:24:48;;;;;;;5.45;1.88;;;;;;;;;;4994222;28;20209;-68
2023/04/03 07:27:15;;;;;;;6.35;2.53;;;;;;;;;;4994269;28;20219;-68
2023/04/03 07:29:42;;;;;;;2.60;2.30;;;;;;;;;;4994441;28;20281;-68
2023/04/03 07:32:10;;;;;;;12.98;2.47;;;;;;;;;;4994078;28;20214;-68
2023/04/03 07:34:38;;;;;;;4.05;1.92;;;;;;;;;;4993514;28;20237;-68
2023/04/03 07:37:06;;;;;;;8.77;2.67;;;;;;;;;;4994035;28;20270;-68
2023/04/03 07:39:34;;;;;;;2.75;2.13;;;;;;;;;;4994073;28;20227;-68
2023/04/03 07:42:01;;;;;;;3.70;1.95;;;;;;;;;;4994062;28;20204;-68
2023/04/03 07:44:28;;;;;;;2.33;2.10;;;;;;;;;;4993828;28;20611;-68
2023/04/03 07:46:56;;;;;;;10.35;2.63;;;;;;;;;;4993855;28;20227;-68
2023/04/03 07:49:24;;;;;;;9.82;5.35;;;;;;;;;;4993723;28;20199;-68
2023/04/03 07:51:52;;;;;;;5.28;2.00;;;;;;;;;;4993672;28;20193;-69
2023/04/03 07:54:20;;;;;;;5.32;2.00;;;;;;;;;;4993634;28;20211;-68
2023/04/03 07:56:48;;;;;;;2.75;2.22;;;;;;;;;;4994408;28;20204;-68
2023/04/03 07:59:15;;;;;;;2.28;1.95;;;;;;;;;;4993753;28;20315;-68
2023/04/03 08:01:42;;;;;;;6.07;3.05;;;;;;;;;;4993895;28;20203;-68
2023/04/03 08:04:10;;;;;;;2.83;2.17;;;;;;;;;;4993623;28;20210;-68
2023/04/03 08:06:37;;;;;;;2.60;2.00;;;;;;;;;;4993448;28;20251;-68
2023/04/03 08:09:06;;;;;;;2.95;1.73;;;;;;;;;;4993736;28;20562;-68
2023/04/03 08:11:33;;;;;;;5.60;2.10;;;;;;;;;;4994030;28;20201;-69
2023/04/03 08:14:01;;;;;;;1.92;1.80;;;;;;;;;;4997486;28;20205;-68
2023/04/03 08:16:28;;;;;;;3.75;1.90;;;;;;;;;;4998398;28;20653;-68
2023/04/03 08:18:55;;;;;;;3.72;2.17;;;;;;;;;;4997459;28;20199;-68
2023/04/03 08:21:23;;;;;;;5.88;2.17;;;;;;;;;;4997288;28;20688;-69
2023/04/03 08:23:51;;;;;;;4.53;2.00;;;;;;;;;;4997369;28;20200;-68
2023/04/03 08:26:21;;;;;;;3.78;1.77;;;;;;;;;;4997016;28;20250;-68
2023/04/03 08:28:49;;;;;;;2.65;1.70;;;;;;;;;;4997634;28;20564;-68
2023/04/03 08:31:18;;;;;;;2.50;1.75;;;;;;;;;;4996409;28;20203;-68
2023/04/03 08:33:45;;;;;;;2.25;1.88;;;;;;;;;;4996985;28;20634;-68
2023/04/03 08:36:18;;;;;;;2.70;1.88;;;;;;;;;;4997153;28;20247;-68
2023/04/03 08:38:45;;;;;;;4.57;2.00;;;;;;;;;;4997394;28;20185;-68
2023/04/03 08:41:16;;;;;;;2.85;1.95;;;;;;;;;;4997097;28;20219;-68
2023/04/03 08:43:54;;;;;;;7.40;2.03;;;;;;;;;;4997155;28;20191;-68
2023/04/03 08:46:25;;;;;;;2.30;1.73;;;;;;;;;;4996821;28;20220;-68
2023/04/03 08:48:53;;;;;;;2.42;1.77;;;;;;;;;;4997223;28;20579;-68
2023/04/03 08:51:21;;;;;;;4.13;2.30;;;;;;;;;;4997065;28;20239;-68
2023/04/03 08:53:54;;;;;;;1.90;1.70;;;;;;;;;;4997106;28;20203;-68
2023/04/03 08:56:22;;;;;;;4.13;2.00;;;;;;;;;;4997384;28;20193;-68
2023/04/03 08:58:54;;;;;;;4.43;1.95;;;;;;;;;;4996476;28;20209;-68
2023/04/03 09:01:23;;;;;;;3.38;1.75;;;;;;;;;;4996578;28;20192;-68
2023/04/03 09:03:50;;;;;;;3.30;1.60;;;;;;;;;;4996735;28;20205;-68
2023/04/03 09:06:21;;;;;;;2.20;1.80;;;;;;;;;;4996435;28;20294;-68
2023/04/03 09:08:51;;;;;;;5.65;1.90;;;;;;;;;;4996385;28;20188;-68
2023/04/03 09:11:23;;;;;;;1.63;1.50;;;;;;;;;;4997109;28;20563;-68
2023/04/03 09:13:55;;;;;;;4.45;2.75;;;;;;;;;;4997036;28;20189;-68
2023/04/03 09:16:27;;;;;;;2.50;1.90;;;;;;;;;;4996759;28;20192;-68
2023/04/03 09:18:56;;;;;;;3.58;1.67;;;;;;;;;;4996741;28;20189;-68
2023/04/03 09:21:27;;;;;;;3.63;1.65;;;;;;;;;;4996633;28;20389;-68
2023/04/03 09:23:55;;;;;;;1.70;1.50;;;;;;;;;;4996732;28;20557;-68
2023/04/03 09:26:25;;;;;;;1.70;1.60;;;;;;;;;;4996145;28;20202;-68
2023/04/03 09:28:55;;;;;;;5.28;1.90;;;;;;;;;;4996415;28;20184;-68
2023/04/03 09:31:24;;;;;;;3.40;1.67;;;;;;;;;;4996316;28;20193;-68
2023/04/03 09:33:52;;;;;;;2.85;2.05;;;;;;;;;;4996494;28;20283;-68
2023/04/03 09:36:34;;;;;;;4.07;1.80;;;;;;;;;;4995775;28;20585;-68
2023/04/03 09:39:05;;;;;;;3.15;1.90;;;;;;;;;;4995671;28;20207;-68
2023/04/03 09:41:33;;;;;;;3.13;1.75;;;;;;;;;;4996252;28;20189;-68
2023/04/03 09:44:02;;;;;;;2.85;1.50;;;;;;;;;;4996536;28;20200;-68
2023/04/03 09:46:33;;;;;;;2.47;1.48;;;;;;;;;;4995643;28;20200;-68
2023/04/03 09:49:01;;;;;;;2.80;2.10;;;;;;;;;;4995784;28;20222;-68
2023/04/03 09:51:28;;;;;;;2.30;1.92;;;;;;;;;;4996348;28;20561;-68
2023/04/03 09:53:56;;;;;;;7.80;2.72;;;;;;;;;;4995411;28;20196;-68
2023/04/03 09:56:25;;;;;;;2.95;2.40;;;;;;;;;;4995542;28;20655;-68
2023/04/03 09:58:54;;;;;;;3.08;1.83;;;;;;;;;;4995337;28;20207;-68
2023/04/03 10:01:28;;;;;;;1.98;1.60;;;;;;;;;;4995678;28;20202;-68
2023/04/03 10:04:10;;;;;;;2.38;1.80;;;;;;;;;;4995268;28;20250;-68
2023/04/03 10:06:40;;;;;;;5.80;1.80;;;;;;;;;;4995680;28;20221;-68
2023/04/03 10:09:16;;;;;;;1.73;1.63;;;;;;;;;;4995427;28;20274;-68
2023/04/03 10:11:58;;;;;;;3.20;2.08;;;;;;;;;;4995677;28;20211;-68
2023/04/03 10:14:26;;;;;;;3.13;1.60;;;;;;;;;;4995451;28;20276;-68
2023/04/03 10:16:58;;;;;;;3.42;1.85;;;;;;;;;;4995733;28;20204;-68
2023/04/03 10:19:33;;;;;;;5.55;4.35;;;;;;;;;;4995377;28;20189;-68
2023/04/03 10:22:01;;;;;;;3.60;2.17;;;;;;;;;;4995554;28;20276;-68
2023/04/03 10:24:31;;;;;;;3.78;2.33;;;;;;;;;;4994889;28;20740;-68
2023/04/03 10:27:00;;;;;;;2.05;1.58;;;;;;;;;;4995452;28;20194;-67
2023/04/03 10:29:36;;;;;;;2.72;1.58;;;;;;;;;;4995128;28;20208;-67
2023/04/03 10:32:11;;;;;;;1.40;1.20;;;;;;;;;;4995414;28;20192;-67
2023/04/03 10:34:40;;;;;;;1.85;1.33;;;;;;;;;;4994556;28;20316;-67
2023/04/03 10:37:08;;;;;;;4.07;1.80;;;;;;;;;;4994809;28;20621;-67
2023/04/03 10:39:39;;;;;;;2.22;1.60;;;;;;;;;;4994975;28;20196;-67
2023/04/03 10:42:10;;;;;;;4.55;1.60;;;;;;;;;;4994750;28;20191;-67
2023/04/03 10:44:42;;;;;;;7.30;1.85;;;;;;;;;;4995811;28;20271;-67
2023/04/03 10:47:14;;;;;;;5.07;2.60;;;;;;;;;;4995222;28;20224;-67
2023/04/03 10:49:49;;;;;;;4.15;1.75;;;;;;;;;;4994444;28;20192;-67
2023/04/03 10:52:19;;;;;;;1.75;1.50;;;;;;;;;;4994857;28;20191;-67
2023/04/03 10:54:50;;;;;;;2.70;2.05;;;;;;;;;;4995237;28;20196;-67
2023/04/03 10:57:17;;;;;;;2.47;1.52;;;;;;;;;;4994556;28;20192;-67
2023/04/03 10:59:46;;;;;;;1.75;1.42;;;;;;;;;;4994793;28;20197;-67
2023/04/03 11:02:18;;;;;;;4.85;1.80;;;;;;;;;;4994263;28;20203;-67
2023/04/03 11:04:48;;;;;;;5.00;1.90;;;;;;;;;;4994997;28;20205;-67
2023/04/03 11:07:18;;;;;;;2.55;1.50;;;;;;;;;;4994684;28;20615;-67
2023/04/03 11:09:48;;;;;;;2.85;1.48;;;;;;;;;;4994386;28;20192;-67
2023/04/03 11:12:18;;;;;;;3.65;2.17;;;;;;;;;;4994241;28;20185;-67
2023/04/03 11:14:48;;;;;;;2.70;1.70;;;;;;;;;;4994856;28;20594;-67
2023/04/03 11:17:25;;;;;;;3.55;1.55;;;;;;;;;;4994042;28;20274;-67
2023/04/03 11:19:58;;;;;;;1.52;1.40;;;;;;;;;;4993880;28;20185;-67
2023/04/03 11:22:28;;;;;;;3.05;1.58;;;;;;;;;;4994098;28;20191;-67
2023/04/03 11:25:01;;;;;;;5.57;1.70;;;;;;;;;;4994244;28;20197;-67
2023/04/03 11:27:30;;;;;;;5.70;2.03;;;;;;;;;;4993954;28;20302;-67
2023/04/03 11:29:58;;;;;;;3.47;2.05;;;;;;;;;;4994529;28;20197;-67
2023/04/03 11:32:56;;;;;;;2.53;1.60;;;;;;;;;;4993867;28;20201;-67
2023/04/03 11:35:24;;;;;;;2.83;1.70;;;;;;;;;;4994060;28;20307;-67
2023/04/03 11:37:53;;;;;;;5.78;2.15;;;;;;;;;;4994071;28;20282;-67
2023/04/03 11:40:22;;;;;;;2.65;1.40;;;;;;;;;;4994088;28;20200;-67
2023/04/03 11:42:51;;;;;;;1.85;1.60;;;;;;;;;;4994101;28;20201;-67
2023/04/03 11:45:34;;;;;;;5.47;2.00;;;;;;;;;;4993845;28;20212;-67
2023/04/03 11:48:03;;;;;;;3.35;1.70;;;;;;;;;;4991207;28;20355;-67
2023/04/03 11:50:41;;;;;;;2.97;1.65;;;;;;;;;;4993812;28;20197;-67
2023/04/03 11:53:28;;;;;;;3.75;1.60;;;;;;;;;;4994175;28;20189;-68
2023/04/03 11:55:56;;;;;;;6.05;1.70;;;;;;;;;;4993568;28;20197;-67
2023/04/03 11:58:24;;;;;;;2.60;1.60;;;;;;;;;;4993967;28;20222;-67
2023/04/03 12:00:56;;;;;;;6.90;2.35;;;;;;;;;;4994043;28;20629;-67
2023/04/03 12:03:57;;;;;;;4.28;1.60;;;;;;;;;;4993891;28;20193;-67
2023/04/03 12:06:56;;;;;;;4.18;1.92;;;;;;;;;;4993541;28;20198;-67
2023/04/03 12:09:28;;;;;;;2.75;1.75;;;;;;;;;;4994014;28;20247;-67
2023/04/03 12:11:57;;;;;;;6.18;2.00;;;;;;;;;;4993854;28;20185;-67
2023/04/03 12:14:25;;;;;;;3.45;1.92;;;;;;;;;;4993768;28;20197;-67
2023/04/03 12:16:53;;;;;;;2.65;1.80;;;;;;;;;;4993301;28;20193;-67
2023/04/03 12:19:35;;;;;;;2.25;2.10;;;;;;;;;;4994483;28;20208;-67
2023/04/03 12:22:09;;;;;;;2.70;1.58;;;;;;;;;;4991623;28;20208;-67
2023/04/03 12:24:38;;;;;;;3.30;1.88;;;;;;;;;;4993886;28;20227;-67
2023/04/03 12:27:25;;;;;;;5.78;2.22;;;;;;;;;;4993625;28;20240;-67
2023/04/03 12:29:54;;;;;;;1.95;1.50;;;;;;;;;;4993675;28;20539;-67
2023/04/03 12:32:27;;;;;;;1.95;1.50;;;;;;;;;;4993610;28;20200;-67
2023/04/03 12:35:03;;;;;;;5.07;2.58;;;;;;;;;;4994227;28;20559;-67
2023/04/03 12:37:41;;;;;;;3.50;2.60;;;;;;;;;;4993598;28;20195;-67
2023/04/03 12:40:12;;;;;;;5.13;2.78;;;;;;;;;;4994161;28;20189;-67
2023/04/03 12:42:57;;;;;;;3.72;2.20;;;;;;;;;;4993574;28;20189;-67
2023/04/03 12:45:25;;;;;;;3.72;2.00;;;;;;;;;;4993466;28;20203;-67
2023/04/03 12:47:53;;;;;;;5.97;1.95;;;;;;;;;;4993336;28;20221;-67
2023/04/03 12:50:23;;;;;;;2.42;1.85;;;;;;;;;;4994548;28;20208;-68
2023/04/03 12:52:54;;;;;;;4.10;1.70;;;;;;;;;;5013135;28;20246;-69
2023/04/03 12:55:22;;;;;;;2.00;1.70;;;;;;;;;;5012802;28;20185;-67
2023/04/03 12:57:49;;;;;;;4.60;1.60;;;;;;;;;;5013489;28;20200;-66
2023/04/03 13:00:28;;;;;;;2.08;1.75;;;;;;;;;;5016469;28;20203;-67
2023/04/03 13:02:55;;;;;;;4.25;1.40;;;;;;;;;;5016713;28;20184;-66
2023/04/03 13:05:23;;;;;;;6.30;2.22;;;;;;;;;;5016585;28;20633;-67
2023/04/03 13:07:51;;;;;;;6.70;2.17;;;;;;;;;;5016087;28;20290;-67
2023/04/03 13:10:20;;;;;;;2.57;1.77;;;;;;;;;;5015190;28;20567;-68
2023/04/03 13:12:48;;;;;;;2.20;1.90;;;;;;;;;;5014922;28;20447;-67
2023/04/03 13:15:17;;;;;;;4.35;1.75;;;;;;;;;;5015410;28;20523;-69
2023/04/03 13:17:45;;;;;;;3.00;2.30;;;;;;;;;;5014732;28;20204;-67
2023/04/03 13:20:15;;;;;;;5.77;1.83;;;;;;;;;;5015666;28;20306;-67
2023/04/03 13:22:47;;;;;;;2.43;1.90;;;;;;;;;;5015266;28;20432;-67
2023/04/03 13:25:15;;;;;;;4.30;2.50;;;;;;;;;;5015090;28;20432;-68
2023/04/03 13:27:44;;;;;;;10.33;2.77;;;;;;;;;;5015191;28;20802;-67
2023/04/03 13:30:21;;;;;;;3.30;1.93;;;;;;;;;;5015160;28;20858;-66
2023/04/03 13:32:48;;;;;;;3.43;1.93;;;;;;;;;;5015299;28;20651;-67
2023/04/03 13:35:32;;;;;;;5.03;2.30;;;;;;;;;;5015279;28;20570;-67
2023/04/03 13:38:02;;;;;;;2.00;1.80;;;;;;;;;;5014578;28;20254;-67
2023/04/03 13:40:29;;;;;;;5.00;2.00;;;;;;;;;;5014999;28;20443;-67
2023/04/03 13:43:07;;;;;;;5.77;1.97;;;;;;;;;;5014753;28;20439;-66
2023/04/03 13:45:35;;;;;;;1.63;1.40;;;;;;;;;;5014677;28;20434;-70
2023/04/03 13:48:10;;;;;;;2.08;1.88;;;;;;;;;;5014622;28;20654;-69
2023/04/03 13:50:51;;;;;;;3.25;1.92;;;;;;;;;;5015429;28;20200;-66
2023/04/03 13:53:19;;;;;;;3.30;1.90;;;;;;;;;;5014238;28;20185;-67
2023/04/03 13:55:55;;;;;;;2.27;2.00;;;;;;;;;;5014718;28;20291;-67
2023/04/03 13:58:24;;;;;;;3.60;1.90;;;;;;;;;;5015185;28;20829;-66
2023/04/03 14:00:53;;;;;;;1.87;1.60;;;;;;;;;;5015865;28;20451;-67
2023/04/03 14:03:22;;;;;;;2.40;1.70;;;;;;;;;;5014540;28;20454;-68
2023/04/03 14:05:49;;;;;;;3.13;2.00;;;;;;;;;;5014598;28;20447;-67
2023/04/03 14:08:16;;;;;;;5.33;2.57;;;;;;;;;;5014859;28;20220;-67
2023/04/03 14:10:43;;;;;;;6.07;2.17;;;;;;;;;;5013234;28;20993;-69
2023/04/03 14:13:13;;;;;;;2.47;1.70;;;;;;;;;;5014282;28;20451;-67
2023/04/03 14:15:42;;;;;;;4.73;1.80;;;;;;;;;;5014632;28;20526;-67
2023/04/03 14:18:11;;;;;;;2.23;1.57;;;;;;;;;;5014981;28;20441;-67
2023/04/03 14:20:38;;;;;;;2.67;2.20;;;;;;;;;;5015024;28;20486;-67
2023/04/03 14:23:06;;;;;;;2.77;2.13;;;;;;;;;;5014514;28;20461;-67
2023/04/03 14:25:33;;;;;;;3.73;2.10;;;;;;;;;;5014631;28;20833;-67
2023/04/03 14:28:00;;;;;;;5.93;2.23;;;;;;;;;;5014657;28;20522;-67
2023/04/03 14:30:29;;;;;;;3.08;2.17;;;;;;;;;;5014501;28;20949;-67
2023/04/03 14:32:58;;;;;;;10.02;6.43;;;;;;;;;;5014672;28;20196;-67
2023/04/03 14:35:26;;;;;;;3.03;2.33;;;;;;;;;;5014315;28;20283;-67
2023/04/03 14:37:53;;;;;;;7.20;2.20;;;;;;;;;;5014443;28;20438;-67
2023/04/03 14:40:22;;;;;;;3.30;1.70;;;;;;;;;;5014170;28;20461;-67
2023/04/03 14:42:49;;;;;;;2.20;2.00;;;;;;;;;;5014093;28;20443;-67
2023/04/03 14:45:18;;;;;;;3.25;1.70;;;;;;;;;;5014148;28;20944;-67
2023/04/03 14:47:47;;;;;;;5.30;2.28;;;;;;;;;;5014005;28;20255;-67
2023/04/03 14:50:18;;;;;;;8.80;2.00;;;;;;;;;;5014175;28;20681;-67
2023/04/03 14:52:46;;;;;;;3.80;1.90;;;;;;;;;;5014664;28;20784;-67
2023/04/03 14:55:14;;;;;;;2.07;1.87;;;;;;;;;;5014301;28;20443;-67